Time;durP1;ratioP1;P1;durP2;ratioP2;P2;SDS_P1;SDS_P2;PMS_P1;PMS_P2;Temp;Humidity;BMP_temperature;BMP_pressure;BME280_temperature;BME280_humidity;BME280_pressure;Samples;Min_cycle;Max_cycle;Signal;HPM_P1;HPM_P2
2022/03/31 00:01:18;;;;;;;2.83;1.60;;;;;;;3.94;92.75;100466.00;6112064;23;20020;-79
2022/03/31 00:03:47;;;;;;;3.03;1.92;;;;;;;3.93;93.76;100461.59;6134602;23;20020;-78
2022/03/31 00:06:15;;;;;;;5.78;2.10;;;;;;;3.88;94.73;100469.31;6160616;23;20025;-79
2022/03/31 00:08:43;;;;;;;4.68;2.15;;;;;;;3.83;96.54;100468.31;6130654;23;20051;-79
2022/03/31 00:11:12;;;;;;;2.90;2.15;;;;;;;3.78;97.18;100463.00;6187117;23;20013;-79
2022/03/31 00:13:42;;;;;;;5.03;2.95;;;;;;;3.78;97.34;100463.00;6156992;23;20024;-79
2022/03/31 00:16:10;;;;;;;4.18;2.25;;;;;;;3.71;98.32;100471.53;6148631;23;20457;-79
2022/03/31 00:18:39;;;;;;;3.72;2.70;;;;;;;3.66;98.40;100454.88;6156999;23;20032;-79
2022/03/31 00:21:08;;;;;;;3.20;2.20;;;;;;;3.63;98.70;100457.41;6187147;23;20017;-79
2022/03/31 00:23:37;;;;;;;3.25;2.72;;;;;;;3.63;98.85;100457.41;6179593;23;20566;-79
2022/03/31 00:26:06;;;;;;;2.63;2.38;;;;;;;3.63;99.56;100463.50;6160728;23;20017;-79
2022/03/31 00:28:35;;;;;;;3.63;2.30;;;;;;;3.63;100.00;100458.31;6122552;23;20017;-80
2022/03/31 00:31:03;;;;;;;3.20;2.80;;;;;;;3.62;100.00;100463.47;6173616;23;20017;-79
2022/03/31 00:33:32;;;;;;;5.22;2.70;;;;;;;3.61;100.00;100462.59;6156329;23;20028;-80
2022/03/31 00:36:00;;;;;;;4.30;2.60;;;;;;;3.62;100.00;100455.66;6161172;23;20025;-79
2022/03/31 00:38:28;;;;;;;4.85;2.58;;;;;;;3.61;100.00;100452.16;6154999;23;20473;-80
2022/03/31 00:40:57;;;;;;;4.38;2.58;;;;;;;3.59;100.00;100451.25;6136052;23;20013;-79
2022/03/31 00:43:25;;;;;;;3.33;3.03;;;;;;;3.58;100.00;100448.59;6133601;23;20028;-79
2022/03/31 00:45:56;;;;;;;5.90;2.75;;;;;;;3.58;100.00;100453.81;6122564;23;20021;-79
2022/03/31 00:48:25;;;;;;;5.68;3.17;;;;;;;3.56;100.00;100445.97;6180771;23;20027;-78
2022/03/31 00:50:53;;;;;;;5.05;3.17;;;;;;;3.58;100.00;100443.41;6160473;23;20028;-79
2022/03/31 00:53:22;;;;;;;3.30;3.00;;;;;;;3.55;100.00;100440.69;6158032;23;20025;-80
2022/03/31 00:56:01;;;;;;;3.38;3.08;;;;;;;3.50;100.00;100436.25;6136114;23;20466;-79
2022/03/31 00:58:31;;;;;;;6.13;3.55;;;;;;;3.51;100.00;100438.00;6183044;23;20020;-80
2022/03/31 01:01:00;;;;;;;3.58;3.28;;;;;;;3.49;100.00;100421.47;6092097;23;20046;-75
2022/03/31 01:03:29;;;;;;;4.15;3.85;;;;;;;3.46;100.00;100436.13;6082557;23;20034;-75
2022/03/31 01:05:58;;;;;;;3.67;3.38;;;;;;;3.43;100.00;100428.25;6088353;23;20361;-75
2022/03/31 01:08:27;;;;;;;5.30;3.65;;;;;;;3.40;100.00;100429.03;6095653;23;20026;-75
2022/03/31 01:10:56;;;;;;;6.07;3.90;;;;;;;3.37;100.00;100431.59;6089254;23;20029;-76
2022/03/31 01:13:25;;;;;;;4.90;3.88;;;;;;;3.33;100.00;100416.72;6095821;23;20022;-76
2022/03/31 01:15:54;;;;;;;5.55;4.32;;;;;;;3.32;100.00;100420.16;6071883;23;20030;-76
2022/03/31 01:18:23;;;;;;;3.80;3.50;;;;;;;3.29;100.00;100420.09;6094847;23;20344;-76
2022/03/31 01:20:51;;;;;;;6.22;3.65;;;;;;;3.23;100.00;100423.44;6090921;23;20022;-76
2022/03/31 01:23:21;;;;;;;4.28;3.88;;;;;;;3.20;100.00;100409.44;6091722;23;20018;-76
2022/03/31 01:25:49;;;;;;;6.38;4.25;;;;;;;3.16;100.00;100412.78;6092029;23;20033;-75
2022/03/31 01:28:18;;;;;;;4.57;4.25;;;;;;;3.12;100.00;100414.44;6092973;23;20045;-75
2022/03/31 01:30:47;;;;;;;5.95;4.20;;;;;;;3.10;100.00;100418.69;6085787;23;20022;-75
2022/03/31 01:33:16;;;;;;;4.78;4.10;;;;;;;3.09;100.00;100412.63;6087947;23;20022;-75
2022/03/31 01:35:45;;;;;;;5.97;4.78;;;;;;;3.11;100.00;100420.47;6094518;23;20361;-75
2022/03/31 01:38:14;;;;;;;4.65;4.25;;;;;;;3.10;100.00;100417.00;6092985;23;20237;-75
2022/03/31 01:40:42;;;;;;;6.43;4.13;;;;;;;3.09;100.00;100414.34;6095517;23;20021;-75
2022/03/31 01:43:11;;;;;;;4.82;4.20;;;;;;;3.11;100.00;100410.94;6079845;23;20041;-75
2022/03/31 01:45:39;;;;;;;6.63;4.82;;;;;;;3.14;100.00;100399.75;6093062;23;20022;-75
2022/03/31 01:48:08;;;;;;;5.25;4.78;;;;;;;3.16;100.00;100397.16;6078709;23;20213;-75
2022/03/31 01:50:37;;;;;;;6.75;4.30;;;;;;;3.14;100.00;100404.97;6091253;23;20023;-75
2022/03/31 01:53:06;;;;;;;4.82;4.40;;;;;;;3.12;100.00;100399.69;6078313;23;20304;-74
2022/03/31 01:55:34;;;;;;;5.85;4.72;;;;;;;3.09;100.00;100404.81;6094939;23;20029;-74
2022/03/31 01:58:04;;;;;;;5.35;4.20;;;;;;;3.05;100.00;100396.91;6088055;23;20452;-75
2022/03/31 02:00:33;;;;;;;3.30;3.00;;;;;;;3.00;100.00;100399.34;6052859;23;20308;-75
2022/03/31 02:03:03;;;;;;;5.68;3.45;;;;;;;2.92;100.00;100387.88;6080348;23;20022;-75
2022/03/31 02:05:36;;;;;;;3.50;3.20;;;;;;;2.83;100.00;100380.69;6115337;23;20479;-75
2022/03/31 02:08:04;;;;;;;3.65;3.35;;;;;;;2.80;100.00;100388.44;6117478;23;20018;-75
2022/03/31 02:10:33;;;;;;;3.60;3.40;;;;;;;2.79;100.00;100383.19;6091596;23;20014;-75
2022/03/31 02:13:02;;;;;;;3.72;3.45;;;;;;;2.76;100.00;100372.69;6092099;23;20022;-75
2022/03/31 02:15:32;;;;;;;3.92;3.58;;;;;;;2.73;100.00;100373.47;6102470;23;20030;-75
2022/03/31 02:18:02;;;;;;;3.70;3.40;;;;;;;2.69;100.00;100367.31;6104842;23;20029;-75
2022/03/31 02:20:32;;;;;;;4.28;3.88;;;;;;;2.70;100.00;100370.78;6092076;23;20022;-75
2022/03/31 02:23:01;;;;;;;4.32;4.03;;;;;;;2.69;100.00;100367.31;6118245;23;20023;-74
2022/03/31 02:25:34;;;;;;;4.13;3.55;;;;;;;2.68;100.00;100362.94;6104788;23;20338;-75
2022/03/31 02:28:03;;;;;;;3.97;3.67;;;;;;;2.65;100.00;100357.66;6094863;23;20018;-74
2022/03/31 02:30:32;;;;;;;4.32;3.88;;;;;;;2.65;100.00;100354.19;6109322;23;20223;-75
2022/03/31 02:33:03;;;;;;;6.80;3.95;;;;;;;2.65;100.00;100356.81;6105186;23;20022;-75
2022/03/31 02:35:31;;;;;;;4.43;4.13;;;;;;;2.63;100.00;100354.16;6114698;23;20240;-75
2022/03/31 02:38:00;;;;;;;3.60;3.30;;;;;;;2.59;100.00;100341.00;6094624;23;20026;-75
2022/03/31 02:40:28;;;;;;;4.65;4.05;;;;;;;2.58;100.00;100345.31;6091865;23;20641;-75
2022/03/31 02:42:57;;;;;;;4.10;3.80;;;;;;;2.59;100.00;100341.91;6096161;23;20019;-75
2022/03/31 02:45:25;;;;;;;4.53;4.13;;;;;;;2.57;100.00;100340.06;6086229;23;20211;-75
2022/03/31 02:47:53;;;;;;;4.68;4.28;;;;;;;2.56;100.00;100344.41;6091831;23;20364;-75
2022/03/31 02:50:22;;;;;;;4.40;4.05;;;;;;;2.55;100.00;100337.44;6076518;23;20018;-76
2022/03/31 02:55:38;;;;;;;5.20;4.80;;;;;;;2.54;100.00;100327.88;6113521;23;20151;-75
2022/03/31 02:58:06;;;;;;;4.80;4.40;;;;;;;2.55;100.00;100334.81;6089673;23;20023;-75
2022/03/31 03:00:37;;;;;;;5.90;4.63;;;;;;;2.58;100.00;100332.31;6112998;23;20041;-75
2022/03/31 03:03:06;;;;;;;5.22;4.80;;;;;;;2.59;100.00;100333.19;6110501;23;20623;-75
2022/03/31 03:05:37;;;;;;;6.05;5.55;;;;;;;2.56;100.00;100331.41;6031863;23;20019;-75
2022/03/31 03:08:06;;;;;;;6.63;5.15;;;;;;;2.58;100.00;100334.06;6117179;23;20022;-75
2022/03/31 03:10:38;;;;;;;7.82;5.93;;;;;;;2.56;100.00;100322.72;6068192;23;20671;-75
2022/03/31 03:13:07;;;;;;;7.38;5.45;;;;;;;2.58;100.00;100331.44;6059556;23;20348;-75
2022/03/31 03:15:37;;;;;;;6.43;5.90;;;;;;;2.57;100.00;100332.28;6018470;23;20379;-75
2022/03/31 03:18:08;;;;;;;6.75;6.18;;;;;;;2.58;100.00;100323.66;6057306;23;20030;-75
2022/03/31 03:20:37;;;;;;;5.90;5.40;;;;;;;2.60;100.00;100328.03;6080556;23;20156;-76
2022/03/31 03:23:05;;;;;;;6.18;5.40;;;;;;;2.59;100.00;100318.50;6116864;23;20452;-76
2022/03/31 03:25:33;;;;;;;7.45;6.68;;;;;;;2.59;100.00;100315.88;6058521;23;20045;-76
2022/03/31 03:28:02;;;;;;;6.40;5.80;;;;;;;2.60;100.00;100311.56;6069788;23;20018;-74
2022/03/31 03:30:30;;;;;;;6.22;5.72;;;;;;;2.61;100.00;100315.91;6086563;23;20026;-75
2022/03/31 03:32:59;;;;;;;5.43;4.93;;;;;;;2.60;100.00;100307.22;6093802;23;20360;-75
2022/03/31 03:35:28;;;;;;;4.63;4.32;;;;;;;2.59;100.00;100310.69;6074038;23;20033;-76
2022/03/31 03:37:57;;;;;;;4.75;4.30;;;;;;;2.54;100.00;100318.34;6095603;23;20463;-76
2022/03/31 03:40:25;;;;;;;4.60;4.30;;;;;;;2.51;100.00;100306.97;6032356;23;20027;-76
2022/03/31 03:42:54;;;;;;;4.45;4.07;;;;;;;2.49;100.00;100303.47;6118111;23;20351;-74
2022/03/31 03:45:22;;;;;;;4.57;4.25;;;;;;;2.47;100.00;100306.00;6085124;23;20014;-76
2022/03/31 03:47:51;;;;;;;4.90;4.50;;;;;;;2.43;100.00;100298.97;6070193;23;20448;-75
2022/03/31 03:50:20;;;;;;;4.95;4.65;;;;;;;2.45;100.00;100301.63;6072232;23;20262;-74
2022/03/31 03:52:49;;;;;;;4.78;4.30;;;;;;;2.44;100.00;100303.34;6084798;23;20033;-74
2022/03/31 03:55:18;;;;;;;4.40;4.10;;;;;;;2.42;100.00;100298.91;6104120;23;20026;-76
2022/03/31 03:57:46;;;;;;;4.18;3.88;;;;;;;2.40;100.00;100298.91;6096092;23;20026;-74
2022/03/31 04:00:15;;;;;;;3.78;3.58;;;;;;;2.36;100.00;100293.56;6090677;23;20023;-74
2022/03/31 04:02:44;;;;;;;4.20;3.90;;;;;;;2.34;100.00;100285.72;6081818;23;20034;-75
2022/03/31 04:05:12;;;;;;;3.45;3.20;;;;;;;2.32;100.00;100290.00;6076090;23;20220;-74
2022/03/31 04:07:42;;;;;;;3.42;3.22;;;;;;;2.29;100.00;100282.13;6090167;23;20029;-75
2022/03/31 04:10:11;;;;;;;3.67;3.38;;;;;;;2.26;100.00;100280.31;6087485;23;20030;-75
2022/03/31 04:12:40;;;;;;;3.75;3.15;;;;;;;2.27;100.00;100282.06;6092951;23;20029;-75
2022/03/31 04:15:09;;;;;;;3.60;3.40;;;;;;;2.28;100.00;100289.03;6068072;23;20014;-75
2022/03/31 04:17:37;;;;;;;3.55;3.28;;;;;;;2.29;100.00;100285.59;6112782;23;20022;-75
2022/03/31 04:20:06;;;;;;;3.80;3.50;;;;;;;2.30;100.00;100278.66;6089851;23;20030;-75
2022/03/31 04:22:37;;;;;;;3.90;3.70;;;;;;;2.27;100.00;100282.06;6054756;23;20513;-75
2022/03/31 04:25:07;;;;;;;4.30;3.92;;;;;;;2.26;100.00;100279.44;6094041;23;20321;-75
2022/03/31 04:27:37;;;;;;;4.10;3.80;;;;;;;2.24;100.00;100287.19;6094089;23;20468;-75
2022/03/31 04:30:08;;;;;;;3.83;3.60;;;;;;;2.25;100.00;100283.75;6094230;23;20045;-74
2022/03/31 04:32:37;;;;;;;4.28;4.07;;;;;;;2.27;100.00;100275.97;6090469;23;20155;-74
2022/03/31 04:35:07;;;;;;;4.15;3.85;;;;;;;2.27;100.00;100282.06;6095380;23;20436;-75
2022/03/31 04:37:36;;;;;;;4.65;4.25;;;;;;;2.24;100.00;100273.31;6103470;23;20219;-75
2022/03/31 04:40:06;;;;;;;3.95;3.75;;;;;;;2.22;100.00;100273.25;6094512;23;20333;-75
2022/03/31 04:42:36;;;;;;;4.97;4.68;;;;;;;2.20;100.00;100279.28;6117062;23;20022;-75
2022/03/31 04:45:05;;;;;;;5.30;4.60;;;;;;;2.17;100.00;100281.78;6093838;23;20363;-75
2022/03/31 04:47:33;;;;;;;5.07;4.72;;;;;;;2.17;100.00;100280.03;6112803;23;20575;-75
2022/03/31 04:50:02;;;;;;;5.30;4.90;;;;;;;2.17;100.00;100280.03;6118888;23;20018;-75
2022/03/31 04:52:31;;;;;;;5.57;5.07;;;;;;;2.17;100.00;100287.84;6075385;23;20527;-75
2022/03/31 04:54:59;;;;;;;5.45;5.05;;;;;;;2.17;100.00;100279.16;6094856;23;20010;-74
2022/03/31 04:57:28;;;;;;;6.13;5.63;;;;;;;2.13;100.00;100280.81;6114305;23;20493;-74
2022/03/31 04:59:56;;;;;;;5.95;5.53;;;;;;;2.13;100.00;100280.81;6096802;23;20349;-74
2022/03/31 05:02:24;;;;;;;6.18;5.72;;;;;;;2.14;100.00;100282.56;6093055;23;20060;-74
2022/03/31 05:04:53;;;;;;;5.53;5.13;;;;;;;2.15;100.00;100286.91;6121679;23;20014;-74
2022/03/31 05:07:22;;;;;;;6.38;5.88;;;;;;;2.18;100.00;100281.81;6093769;23;20263;-74
2022/03/31 05:09:50;;;;;;;6.55;6.05;;;;;;;2.18;100.00;100300.00;6086971;23;20026;-76
2022/03/31 05:12:19;;;;;;;6.00;5.60;;;;;;;2.19;100.00;100293.09;6106763;23;20026;-75
2022/03/31 05:14:47;;;;;;;5.28;4.88;;;;;;;2.17;100.00;100293.03;6120015;23;20022;-75
2022/03/31 05:17:16;;;;;;;6.65;6.15;;;;;;;2.20;100.00;100297.47;6036385;23;20022;-75
2022/03/31 05:19:44;;;;;;;5.15;4.75;;;;;;;2.19;100.00;100291.38;6121033;23;20022;-75
2022/03/31 05:22:17;;;;;;;5.50;5.10;;;;;;;2.20;100.00;100292.25;6116816;23;20018;-75
2022/03/31 05:24:45;;;;;;;5.20;4.80;;;;;;;2.17;100.00;100299.97;6110169;23;20017;-75
2022/03/31 05:27:16;;;;;;;4.95;4.55;;;;;;;2.11;100.00;100298.06;6108926;23;20022;-75
2022/03/31 05:29:45;;;;;;;5.57;5.18;;;;;;;2.11;100.00;100304.16;6113330;23;20474;-75
2022/03/31 05:32:13;;;;;;;6.22;5.72;;;;;;;2.13;100.00;100293.78;6118669;23;20018;-75
2022/03/31 05:34:41;;;;;;;6.90;6.40;;;;;;;2.13;100.00;100283.41;6113943;23;20014;-75
2022/03/31 05:37:10;;;;;;;6.15;5.75;;;;;;;2.11;100.00;100285.94;6121753;23;20026;-75
2022/03/31 05:39:38;;;;;;;7.03;6.45;;;;;;;2.12;100.00;100285.13;6098957;23;20025;-75
2022/03/31 05:42:10;;;;;;;6.07;5.57;;;;;;;2.12;100.00;100281.66;6073410;23;20021;-75
2022/03/31 05:44:38;;;;;;;5.70;5.30;;;;;;;2.11;100.00;100279.88;6118472;23;20148;-75
2022/03/31 05:47:07;;;;;;;7.05;6.47;;;;;;;2.09;100.00;100281.56;6123589;23;20028;-76
2022/03/31 05:49:35;;;;;;;6.70;6.20;;;;;;;2.06;100.00;100273.66;6089494;23;20022;-75
2022/03/31 05:52:04;;;;;;;6.90;6.40;;;;;;;2.03;100.00;100276.19;6085365;23;20026;-75
2022/03/31 05:54:33;;;;;;;7.40;6.80;;;;;;;2.02;100.00;100280.50;6106716;23;20329;-75
2022/03/31 05:57:01;;;;;;;7.68;7.07;;;;;;;2.02;100.00;100284.81;6089597;23;20021;-75
2022/03/31 05:59:30;;;;;;;7.00;6.43;;;;;;;2.01;100.00;100289.13;6119453;23;20018;-75
2022/03/31 06:01:59;;;;;;;7.97;7.28;;;;;;;1.96;100.00;100277.72;6099781;23;20044;-75
2022/03/31 06:04:29;;;;;;;8.02;7.32;;;;;;;1.96;100.00;100285.50;6120048;23;20026;-76
2022/03/31 06:06:57;;;;;;;7.65;7.05;;;;;;;1.94;100.00;100285.47;6125409;23;20510;-79
2022/03/31 06:09:27;;;;;;;8.57;7.78;;;;;;;1.94;100.00;100289.78;6077061;23;20360;-80
2022/03/31 06:12:01;;;;;;;6.72;6.07;;;;;;;1.97;100.00;100286.38;6116310;23;20028;-78
2022/03/31 06:14:32;;;;;;;7.35;6.75;;;;;;;1.96;100.00;100295.91;6097213;23;20018;-80
2022/03/31 06:17:04;;;;;;;8.98;8.18;;;;;;;1.97;100.00;100294.19;6095864;23;20014;-78
2022/03/31 06:19:33;;;;;;;7.40;6.75;;;;;;;1.95;100.00;100296.75;6122414;23;20026;-80
2022/03/31 06:22:02;;;;;;;7.78;7.18;;;;;;;1.94;100.00;100297.59;6076458;23;20018;-78
2022/03/31 06:24:30;;;;;;;10.23;9.23;;;;;;;1.93;100.00;100301.91;6122921;23;20025;-80
2022/03/31 06:27:06;;;;;;;8.43;7.70;;;;;;;1.93;100.00;100299.31;6114628;23;20110;-80
2022/03/31 06:29:35;;;;;;;8.57;7.78;;;;;;;1.93;100.00;100295.84;6122163;23;20017;-78
2022/03/31 06:32:06;;;;;;;8.13;7.43;;;;;;;1.92;100.00;100294.06;6127213;23;20029;-78
2022/03/31 06:34:36;;;;;;;8.63;7.93;;;;;;;1.93;100.00;100288.91;6116480;23;20299;-78
2022/03/31 06:37:04;;;;;;;8.15;7.47;;;;;;;1.97;100.00;100295.09;6120445;23;20014;-78
2022/03/31 06:39:33;;;;;;;9.40;8.50;;;;;;;1.97;100.00;100294.19;6070306;23;20029;-78
2022/03/31 06:42:02;;;;;;;9.05;8.35;;;;;;;1.94;100.00;100295.00;6113047;23;20987;-78
2022/03/31 06:44:32;;;;;;;8.95;8.15;;;;;;;1.95;100.00;100297.63;6123746;23;20358;-78
2022/03/31 06:47:00;;;;;;;9.38;8.48;;;;;;;1.97;100.00;100301.97;6127293;23;20014;-78
2022/03/31 06:49:29;;;;;;;10.85;9.82;;;;;;;1.99;100.00;100301.22;6073603;23;20460;-79
2022/03/31 06:51:57;;;;;;;9.10;8.27;;;;;;;1.99;100.00;100298.59;6100188;23;20026;-79
2022/03/31 06:54:27;;;;;;;9.45;8.55;;;;;;;1.98;100.00;100306.34;6118625;23;20022;-79
2022/03/31 06:56:56;;;;;;;9.30;8.40;;;;;;;1.96;100.00;100301.09;6053424;23;20018;-78
2022/03/31 06:59:24;;;;;;;9.27;8.45;;;;;;;1.99;100.00;100311.59;6112172;23;20022;-77
2022/03/31 07:01:54;;;;;;;10.07;9.18;;;;;;;2.01;100.00;100309.06;6089638;23;20029;-77
2022/03/31 07:04:23;;;;;;;10.77;9.10;;;;;;;2.05;100.00;100316.09;6123945;23;20022;-77
2022/03/31 07:06:52;;;;;;;10.48;9.50;;;;;;;2.01;100.00;100311.66;6113643;23;20201;-77
2022/03/31 07:09:20;;;;;;;10.88;9.27;;;;;;;2.02;100.00;100310.81;6120504;23;20021;-78
2022/03/31 07:11:48;;;;;;;11.73;9.90;;;;;;;2.03;100.00;100312.56;6039136;23;20025;-78
2022/03/31 07:14:17;;;;;;;10.38;9.38;;;;;;;2.01;100.00;100317.72;6125767;23;20017;-77
2022/03/31 07:16:46;;;;;;;11.40;10.23;;;;;;;1.99;100.00;100311.59;6122701;23;20132;-78
2022/03/31 07:19:15;;;;;;;11.25;10.15;;;;;;;1.99;100.00;100316.81;6090081;23;20022;-78
2022/03/31 07:21:43;;;;;;;11.75;10.57;;;;;;;1.95;100.00;100310.63;6060498;23;20030;-78
2022/03/31 07:24:13;;;;;;;11.55;10.25;;;;;;;1.94;100.00;100311.44;6063858;23;20025;-78
2022/03/31 07:26:42;;;;;;;11.63;10.52;;;;;;;1.92;100.00;100323.53;6101193;23;20014;-78
2022/03/31 07:29:11;;;;;;;12.32;11.13;;;;;;;1.92;100.00;100312.25;6086595;23;20029;-78
2022/03/31 07:31:40;;;;;;;13.52;12.13;;;;;;;1.87;100.00;100321.63;6067338;23;20048;-78
2022/03/31 07:34:08;;;;;;;14.55;11.55;;;;;;;1.85;100.00;100319.00;6100960;23;20021;-78
2022/03/31 07:36:37;;;;;;;13.93;12.52;;;;;;;1.89;100.00;100313.06;6114453;23;20214;-78
2022/03/31 07:39:08;;;;;;;12.32;11.07;;;;;;;1.91;100.00;100307.88;6122246;23;20022;-78
2022/03/31 07:41:36;;;;;;;;;;;;;;;1.88;100.00;100323.41;6125194;23;20327;-78
2022/03/31 07:44:05;;;;;;;11.68;10.48;;;;;;;1.85;100.00;100320.69;6115787;23;19928;-78
2022/03/31 07:46:34;;;;;;;11.95;10.75;;;;;;;1.86;100.00;100315.56;6100020;23;20018;-79
2022/03/31 07:49:03;;;;;;;9.85;8.95;;;;;;;1.80;100.00;100319.69;6125986;23;20025;-78
2022/03/31 07:51:31;;;;;;;9.45;8.32;;;;;;;1.73;100.00;100322.09;6074121;23;20203;-78
2022/03/31 07:54:02;;;;;;;10.38;9.30;;;;;;;1.71;100.00;100325.47;6092344;23;20022;-78
2022/03/31 07:56:31;;;;;;;10.82;9.27;;;;;;;1.68;100.00;100321.09;6070693;23;20038;-78
2022/03/31 07:59:00;;;;;;;12.40;10.15;;;;;;;1.67;100.00;100310.66;6111158;23;20045;-78
2022/03/31 08:01:28;;;;;;;12.68;10.93;;;;;;;1.68;100.00;100322.78;6121571;23;20061;-78
2022/03/31 08:03:58;;;;;;;14.63;12.13;;;;;;;1.71;100.00;100313.38;6093449;23;20478;-78
2022/03/31 08:06:26;;;;;;;13.75;12.27;;;;;;;1.69;100.00;100321.97;6123894;23;20022;-79
2022/03/31 08:08:55;;;;;;;14.23;12.60;;;;;;;1.71;100.00;100318.56;6116951;23;20021;-78
2022/03/31 08:11:23;;;;;;;12.73;11.43;;;;;;;1.71;100.00;100321.16;6095543;23;20022;-79
2022/03/31 08:13:52;;;;;;;13.73;12.30;;;;;;;1.71;100.00;100317.69;6102526;23;20029;-78
2022/03/31 08:16:20;;;;;;;11.02;9.93;;;;;;;1.69;100.00;100333.22;6085910;23;20455;-79
2022/03/31 08:18:50;;;;;;;13.23;11.05;;;;;;;1.64;100.00;100329.59;6127075;23;20026;-77
2022/03/31 08:21:18;;;;;;;11.90;10.68;;;;;;;1.63;100.00;100320.06;6094308;23;20022;-78
2022/03/31 08:23:47;;;;;;;14.05;10.07;;;;;;;1.61;100.00;100332.13;6076836;23;20021;-77
2022/03/31 08:26:15;;;;;;;11.60;9.80;;;;;;;1.62;100.00;100327.78;6098229;23;20700;-77
2022/03/31 08:28:44;;;;;;;9.85;8.85;;;;;;;1.60;100.00;100322.53;6125168;23;20351;-77
2022/03/31 08:31:12;;;;;;;11.10;8.70;;;;;;;1.57;100.00;100330.25;6075660;23;20033;-77
2022/03/31 08:33:42;;;;;;;8.77;7.97;;;;;;;1.59;100.00;100325.09;6125253;23;20260;-77
2022/03/31 08:36:11;;;;;;;7.88;7.15;;;;;;;1.62;100.00;100330.41;6099583;23;20022;-77
2022/03/31 08:38:40;;;;;;;8.27;7.47;;;;;;;1.58;100.00;100328.53;6100415;23;20049;-78
2022/03/31 08:41:08;;;;;;;7.60;7.00;;;;;;;1.55;100.00;100339.69;6124681;23;20025;-77
2022/03/31 08:43:37;;;;;;;7.97;7.18;;;;;;;1.52;100.00;100342.22;6123246;23;20022;-78
2022/03/31 08:46:08;;;;;;;8.10;7.30;;;;;;;1.53;100.00;100330.97;6124300;23;20025;-78
2022/03/31 08:48:39;;;;;;;6.93;6.32;;;;;;;1.55;100.00;100334.50;6122519;23;20029;-77
2022/03/31 08:51:09;;;;;;;7.07;6.40;;;;;;;1.53;100.00;100334.47;6117800;23;20026;-78
2022/03/31 08:53:37;;;;;;;6.95;6.35;;;;;;;1.54;100.00;100336.22;6091223;23;20022;-77
2022/03/31 08:56:10;;;;;;;6.38;5.78;;;;;;;1.55;100.00;100335.41;6129680;23;20022;-78
2022/03/31 08:58:38;;;;;;;6.28;5.68;;;;;;;1.51;100.00;100333.56;6099682;23;20238;-77
2022/03/31 09:01:08;;;;;;;6.25;5.75;;;;;;;1.50;100.00;100342.16;6122795;23;20029;-77
2022/03/31 09:03:38;;;;;;;6.43;5.82;;;;;;;1.55;100.00;100335.41;6071733;23;20022;-78
2022/03/31 09:06:20;;;;;;;6.18;5.68;;;;;;;1.56;100.00;100354.47;6127954;23;20035;-77
2022/03/31 09:08:55;;;;;;;5.57;5.05;;;;;;;1.54;100.00;100348.34;6130184;23;20352;-77
2022/03/31 09:11:35;;;;;;;5.70;5.20;;;;;;;1.52;100.00;100357.78;6124895;23;20025;-77
2022/03/31 09:14:10;;;;;;;7.22;6.50;;;;;;;1.52;100.00;100365.59;6125995;23;20029;-78
2022/03/31 09:16:40;;;;;;;7.00;6.00;;;;;;;1.45;100.00;100361.03;6065207;23;20384;-77
2022/03/31 09:19:10;;;;;;;7.28;6.35;;;;;;;1.34;100.00;100353.78;6102368;23;20022;-77
2022/03/31 09:21:57;;;;;;;6.13;5.63;;;;;;;1.35;100.00;100350.34;6068869;23;20025;-77
2022/03/31 09:24:27;;;;;;;5.80;5.22;;;;;;;1.33;100.00;100364.09;6122627;23;20227;-77
2022/03/31 09:26:58;;;;;;;6.32;5.72;;;;;;;1.32;100.00;100363.25;6125030;23;20033;-77
2022/03/31 09:29:30;;;;;;;5.90;5.40;;;;;;;1.30;100.00;100361.41;6121001;23;20077;-77
2022/03/31 09:32:25;;;;;;;4.85;4.45;;;;;;;1.25;100.00;100365.53;6115028;23;20022;-78
2022/03/31 09:35:05;;;;;;;5.53;5.03;;;;;;;1.22;100.00;100358.56;6070284;23;20029;-78
2022/03/31 09:37:35;;;;;;;6.78;6.00;;;;;;;1.22;100.00;100370.66;6116695;23;20017;-78
2022/03/31 09:40:05;;;;;;;6.78;5.47;;;;;;;1.19;100.00;100362.75;6128350;23;20021;-78
2022/03/31 09:42:33;;;;;;;6.22;5.63;;;;;;;1.14;100.00;100367.81;6115256;23;20021;-78
2022/03/31 09:45:03;;;;;;;7.07;6.38;;;;;;;1.10;100.00;100368.53;6102850;23;20022;-78
2022/03/31 09:47:42;;;;;;;6.35;5.75;;;;;;;1.11;100.00;100368.56;6099522;23;20265;-77
2022/03/31 09:50:11;;;;;;;5.90;5.30;;;;;;;1.10;100.00;100369.41;6088480;23;20088;-78
2022/03/31 09:52:41;;;;;;;5.70;5.20;;;;;;;1.06;100.00;100366.66;6118468;23;20029;-77
2022/03/31 09:55:13;;;;;;;5.90;5.40;;;;;;;1.02;100.00;100360.50;6093555;23;20351;-77
2022/03/31 09:57:42;;;;;;;5.47;5.03;;;;;;;0.99;100.00;100367.28;6092883;23;20029;-78
2022/03/31 10:00:12;;;;;;;5.22;4.82;;;;;;;0.92;100.00;100367.06;6044857;23;20021;-77
2022/03/31 10:02:41;;;;;;;5.68;5.18;;;;;;;0.86;100.00;100366.84;6125974;23;20050;-77
2022/03/31 10:05:38;;;;;;;5.75;5.25;;;;;;;0.81;100.00;100368.41;6082636;23;20021;-77
2022/03/31 10:08:10;;;;;;;6.40;5.35;;;;;;;0.82;100.00;100374.50;6114117;23;20021;-77
2022/03/31 10:10:39;;;;;;;5.25;4.85;;;;;;;0.83;100.00;100363.28;6090081;23;20221;-77
2022/03/31 10:13:15;;;;;;;6.25;4.60;;;;;;;0.84;100.00;100380.63;6123208;23;20305;-77
2022/03/31 10:15:46;;;;;;;8.88;5.95;;;;;;;0.83;100.00;100384.03;6087656;23;20022;-77
2022/03/31 10:18:15;;;;;;;7.18;5.55;;;;;;;0.84;100.00;100378.91;6076311;23;20355;-78
2022/03/31 10:20:58;;;;;;;5.45;5.05;;;;;;;0.81;100.00;100378.78;6067000;23;20259;-78
2022/03/31 10:26:25;;;;;;;5.40;5.00;;;;;;;0.70;100.00;100383.59;6126084;23;20018;-78
2022/03/31 10:28:59;;;;;;;6.40;5.80;;;;;;;0.66;100.00;100384.34;6065789;23;20022;-78
2022/03/31 10:31:36;;;;;;;7.28;5.97;;;;;;;0.67;100.00;100377.44;6111329;23;20026;-79
2022/03/31 10:34:10;;;;;;;6.18;5.53;;;;;;;0.65;100.00;100379.97;6121520;23;20017;-77
2022/03/31 10:36:47;;;;;;;6.65;5.60;;;;;;;0.63;100.00;100373.84;6106693;23;20021;-77
2022/03/31 10:39:33;;;;;;;6.15;5.55;;;;;;;0.59;100.00;100387.53;6113829;23;20022;-77
2022/03/31 10:42:04;;;;;;;6.40;5.80;;;;;;;0.57;100.00;100376.22;6068266;23;20022;-78
2022/03/31 10:44:32;;;;;;;6.57;5.97;;;;;;;0.57;100.00;100377.09;6123868;23;20017;-78
2022/03/31 10:47:07;;;;;;;6.97;5.90;;;;;;;0.61;100.00;100385.00;6104019;23;20045;-77
2022/03/31 10:49:37;;;;;;;6.85;6.20;;;;;;;0.61;100.00;100380.69;6088849;23;20023;-77
2022/03/31 10:52:23;;;;;;;6.32;5.75;;;;;;;0.57;100.00;100386.59;6087085;23;20022;-79
2022/03/31 10:54:52;;;;;;;5.85;5.25;;;;;;;0.54;100.00;100389.06;6114921;23;20387;-77
2022/03/31 10:57:21;;;;;;;6.13;5.53;;;;;;;0.53;100.00;100371.72;6121980;23;20029;-80
2022/03/31 10:59:54;;;;;;;5.63;5.18;;;;;;;0.53;100.00;100385.59;6054533;23;20025;-77
2022/03/31 11:02:23;;;;;;;;;;;;;;;0.51;100.00;100386.34;6119161;23;20307;-77
2022/03/31 11:04:58;;;;;;;6.95;6.25;;;;;;;0.45;100.00;100376.63;6126556;23;19921;-77
2022/03/31 11:07:28;;;;;;;6.55;5.90;;;;;;;0.41;100.00;100381.66;6106305;23;20128;-78
2022/03/31 11:10:13;;;;;;;7.00;6.00;;;;;;;0.39;100.00;100374.69;6113773;23;20133;-83
2022/03/31 11:12:44;;;;;;;6.53;5.93;;;;;;;0.42;100.00;100380.81;6096114;23;20235;-78
2022/03/31 11:15:16;;;;;;;7.70;5.95;;;;;;;0.42;100.00;100376.53;6126408;23;20025;-78
2022/03/31 11:17:47;;;;;;;7.63;6.93;;;;;;;0.39;100.00;100381.59;6070522;23;20021;-78
2022/03/31 11:20:19;;;;;;;7.30;6.60;;;;;;;0.36;100.00;100377.19;6067452;23;20018;-77
2022/03/31 11:22:51;;;;;;;7.30;6.60;;;;;;;0.37;100.00;100381.53;6108758;23;20243;-78
2022/03/31 11:25:22;;;;;;;9.95;6.75;;;;;;;0.36;100.00;100372.03;6101304;23;20013;-78
2022/03/31 11:27:52;;;;;;;7.47;6.78;;;;;;;0.35;100.00;100367.66;6097774;23;20026;-79
2022/03/31 11:30:29;;;;;;;7.38;6.65;;;;;;;0.35;100.00;100372.84;6124150;23;20348;-78
2022/03/31 11:32:58;;;;;;;8.43;7.63;;;;;;;0.33;100.00;100369.31;6122808;23;20022;-78
2022/03/31 11:35:28;;;;;;;7.95;7.15;;;;;;;0.32;100.00;100358.88;6127008;23;20412;-79
2022/03/31 11:38:03;;;;;;;7.03;6.43;;;;;;;0.35;100.00;100361.59;6083209;23;20373;-77
2022/03/31 11:40:35;;;;;;;8.45;7.20;;;;;;;0.36;100.00;100359.06;6101922;23;20018;-78
2022/03/31 11:43:06;;;;;;;7.43;6.57;;;;;;;0.38;100.00;100352.22;6122898;23;20251;-78